Levittown, NY

12:07 PM EST on March 02, 2015 (GMT -0500)
Island Trees | Change Station
CLOSE
Current Station
Personal Weather Station
Location: Levittown, NY
Elevation: 108 ft
Nearby Weather Stations

Elev 108 ft 40.74 °N, 73.50 °W | Updated 9 minutes ago

Partly Cloudy
Partly Cloudy
36.5 °F
Feels Like 31 °F
N
6.3
Wind Variable Wind from SW

Today
High -- | Low -- °F
--% Chance of Precip.
Yesterday
High -- | Low -- °F
Precip. -- in
6:26 AM 5:46 PM
Waxing Gibbous, 92% visible
Pressure 30.14 in
Visibility 10.0 miles
Clouds Few 4800 ft
Windchill 31 °F
Dew Point 17 °F
Humidity 45%
Rainfall 0.00 in
Snow Depth Not available.
UV 5 out of 12
Pollen .40 out of 12
Air Quality Not available.
Flu Activity Not available.
METAR KFRG 021653Z 32016G23KT 10SM FEW048 01/M08 A3014 RMK AO2 PK WND 33031/1623 SLP206 T00111083

More Conditions Fewer Conditions

Pressure 30.14 in
Visibility 10.0 miles
Clouds Few 4800 ft
Windchill 31 °F
Dew Point 17 °F
Humidity 45%
Rainfall 0.00 in
Snow Depth Not available.
UV 5 out of 12
Pollen .40 out of 12
Air Quality Not available.
Flu Activity Not available.
METAR KFRG 021653Z 32016G23KT 10SM FEW048 01/M08 A3014 RMK AO2 PK WND 33031/1623 SLP206 T00111083

More Conditions Fewer Conditions

10-Day Weather Forecast

Almanac

Astronomy

Mar. 02, 2015 Rise Set
Actual Time
Civil Twilight
Nautical Twilight
Astronomical Twilight
Moon
Length of Visible Light
Length of Day
Tomorrow will be .
, % of the Moon is Illuminated

Today's Extremes

State Highs State Lows

Community

WunderPhotos

Upload Photos

1,801,852 photos uploaded!

WunderBlogs® & News

Nearby

Air Quality

  Air Quality AQ Index Pollutant
Not available.

Snow Depth

Station Depth Elevation

Earthquake Activity

City Distance Mag. Time & Date
Minimum magnitude displayed is 2.5.

Coastal Water Temperatures

Place Temperature

Nearby Weather Stations